createdAt,value
2023-04-01T00:02:58.895Z,100163.78
2023-04-01T00:07:01.832Z,100164.63
2023-04-01T00:11:04.222Z,100153.22
2023-04-01T00:15:34.648Z,100149.72
2023-04-01T00:19:45.125Z,100136.59
2023-04-01T00:23:58.808Z,100124.25
2023-04-01T00:28:05.260Z,100119.06
2023-04-01T00:32:14.599Z,100121.88
2023-04-01T00:36:23.854Z,100111.47
2023-04-01T00:40:38.721Z,100115.06
2023-04-01T00:44:54.356Z,100115.91
2023-04-01T00:49:03.760Z,100109.00
2023-04-01T00:53:19.864Z,100089.81
2023-04-01T00:57:30.420Z,100086.41
2023-04-01T01:01:46.037Z,100083.91
2023-04-01T01:06:04.716Z,100076.13
2023-04-01T01:10:13.015Z,100073.44
2023-04-01T01:14:40.793Z,100068.16
2023-04-01T01:18:58.748Z,100057.69
2023-04-01T01:23:20.063Z,100054.13
2023-04-01T01:27:36.173Z,100056.53
2023-04-01T01:32:01.378Z,100052.94
2023-04-01T01:36:19.132Z,100041.72
2023-04-01T01:40:25.187Z,100040.00
2023-04-01T01:44:32.191Z,100030.44
2023-04-01T01:48:42.263Z,100023.44
2023-04-01T01:52:57.077Z,100023.25
2023-04-01T01:57:10.222Z,100014.91
2023-04-01T02:01:26.392Z,100001.56
2023-04-01T02:05:37.143Z,100004.25
2023-04-01T02:09:56.825Z,100007.41
2023-04-01T02:14:16.940Z,99990.06
2023-04-01T02:18:42.147Z,99990.06
2023-04-01T02:32:52.153Z,99974.34
2023-04-01T02:37:29.285Z,99972.31
2023-04-01T02:42:01.097Z,99955.84
2023-04-01T02:46:32.570Z,99959.88
2023-04-01T02:50:33.662Z,99958.28
2023-04-01T02:54:34.817Z,99946.94
2023-04-01T02:58:36.689Z,99946.00
2023-04-01T03:02:42.885Z,99944.97
2023-04-01T03:06:49.045Z,99943.66
2023-04-01T03:10:52.951Z,99943.63
2023-04-01T03:15:11.143Z,99935.91
2023-04-01T03:19:17.579Z,99938.03
2023-04-01T03:23:28.256Z,99943.19
2023-04-01T03:27:28.338Z,99947.53
2023-04-01T03:31:41.828Z,99936.72
2023-04-01T03:36:02.904Z,99936.66
2023-04-01T03:40:40.585Z,99940.81
2023-04-01T03:44:43.156Z,99941.25
2023-04-01T03:48:47.283Z,99936.84
2023-04-01T03:52:52.921Z,99932.09
2023-04-01T03:56:57.377Z,99929.28
2023-04-01T04:01:06.758Z,99936.84
2023-04-01T04:05:14.609Z,99924.31
2023-04-01T04:09:31.434Z,99921.69
2023-04-01T04:13:40.806Z,99917.41
2023-04-01T04:17:40.980Z,99908.72
2023-04-01T04:21:57.120Z,99911.22
2023-04-01T04:26:14.864Z,99900.78
2023-04-01T04:30:22.872Z,99901.72
2023-04-01T04:34:32.735Z,99899.25
2023-04-01T04:38:33.790Z,99901.22
2023-04-01T04:42:38.988Z,99915.28
2023-04-01T04:46:51.497Z,99909.13
2023-04-01T04:50:57.315Z,99908.19
2023-04-01T04:55:04.920Z,99909.84
2023-04-01T04:59:19.184Z,99909.84
2023-04-01T05:03:25.269Z,99901.91
2023-04-01T05:07:28.724Z,99897.63
2023-04-01T05:11:29.911Z,99892.44
2023-04-01T05:15:41.338Z,99891.78
2023-04-01T05:19:42.670Z,99879.34
2023-04-01T05:23:42.414Z,99884.56
2023-04-01T05:27:45.580Z,99873.59
2023-04-01T05:31:50.762Z,99890.06
2023-04-01T05:35:52.365Z,99892.22
2023-04-01T05:39:55.499Z,99883.50
2023-04-01T05:44:11.537Z,99881.09
2023-04-01T05:48:25.667Z,99884.00
2023-04-01T05:52:40.538Z,99874.94
2023-04-01T05:56:47.659Z,99874.00
2023-04-01T06:01:08.073Z,99862.50
2023-04-01T06:05:28.034Z,99858.84
2023-04-01T06:09:44.133Z,99849.97
2023-04-01T06:13:59.138Z,99844.34
2023-04-01T06:18:16.039Z,99844.00
2023-04-01T06:22:35.022Z,99844.16
2023-04-01T06:26:43.044Z,99848.41
2023-04-01T06:31:02.433Z,99848.94
2023-04-01T06:35:35.486Z,99849.06
2023-04-01T06:40:00.830Z,99862.50
2023-04-01T06:44:09.683Z,99863.47
2023-04-01T06:48:28.468Z,99857.25
2023-04-01T06:52:51.340Z,99848.56
2023-04-01T06:57:06.711Z,99853.97
2023-04-01T07:01:12.176Z,99854.38
2023-04-01T07:05:31.655Z,99850.16
2023-04-01T07:09:36.962Z,99844.44
2023-04-01T07:13:53.278Z,99852.69
2023-04-01T07:17:58.840Z,99862.56
2023-04-01T07:22:02.311Z,99856.53
2023-04-01T07:26:05.743Z,99857.94
2023-04-01T07:30:20.839Z,99861.13
2023-04-01T07:34:29.809Z,99865.28
2023-04-01T07:38:35.677Z,99860.34
2023-04-01T07:42:42.907Z,99867.56
2023-04-01T07:47:02.819Z,99861.94
2023-04-01T07:51:13.085Z,99867.13
2023-04-01T07:55:22.944Z,99871.00
2023-04-01T07:59:38.862Z,99856.91
2023-04-01T08:03:54.962Z,99847.31
2023-04-01T08:08:15.665Z,99840.56
2023-04-01T08:12:39.958Z,99823.97
2023-04-01T08:16:59.144Z,99833.38
2023-04-01T08:21:04.688Z,99827.81
2023-04-01T08:25:19.972Z,99817.47
2023-04-01T08:29:22.565Z,99814.22
2023-04-01T08:33:30.775Z,99822.16
2023-04-01T08:37:40.738Z,99814.84
2023-04-01T08:42:08.985Z,99814.38
2023-04-01T08:46:23.880Z,99818.16
2023-04-01T08:50:38.779Z,99822.78
2023-04-01T08:54:58.788Z,99817.00
2023-04-01T08:59:13.147Z,99819.56
2023-04-01T09:03:32.926Z,99812.78
2023-04-01T09:07:58.125Z,99807.16
2023-04-01T09:12:51.738Z,99802.81
2023-04-01T09:17:23.938Z,99811.06
2023-04-01T09:22:01.318Z,99806.38
2023-04-01T09:26:25.000Z,99809.66
2023-04-01T09:30:58.487Z,99810.53
2023-04-01T09:35:11.959Z,99817.88
2023-04-01T09:39:39.023Z,99815.47
2023-04-01T09:44:15.832Z,99808.84
2023-04-01T09:48:47.175Z,99810.94
2023-04-01T09:53:00.060Z,99800.81
2023-04-01T09:57:26.810Z,99800.31
2023-04-01T10:01:44.476Z,99798.31
2023-04-01T10:06:00.922Z,99782.88
2023-04-01T10:10:14.090Z,99785.47
2023-04-01T10:14:50.830Z,99783.38
2023-04-01T10:19:22.635Z,99768.22
2023-04-01T10:23:39.320Z,99777.69
2023-04-01T10:28:04.336Z,99765.75
2023-04-01T10:32:29.855Z,99752.94
2023-04-01T10:36:51.276Z,99758.72
2023-04-01T10:41:09.123Z,99760.41
2023-04-01T10:45:42.653Z,99765.59
2023-04-01T10:50:11.543Z,99762.94
2023-04-01T10:54:48.226Z,99752.69
2023-04-01T10:59:23.367Z,99746.56
2023-04-01T11:04:00.526Z,99740.44
2023-04-01T11:08:48.222Z,99737.06
2023-04-01T11:13:28.997Z,99743.66
2023-04-01T11:17:50.138Z,99724.44
2023-04-01T11:22:29.498Z,99714.03
2023-04-01T11:27:09.791Z,99704.13
2023-04-01T11:31:30.236Z,99716.97
2023-04-01T11:36:22.960Z,99707.31
2023-04-01T11:41:04.810Z,99694.66
2023-04-01T11:45:48.541Z,99689.50
2023-04-01T11:50:41.966Z,99682.31
2023-04-01T11:55:28.119Z,99684.97
2023-04-01T12:05:32.281Z,99680.66
2023-04-01T12:15:47.494Z,99670.47
2023-04-01T12:20:36.665Z,99657.75
2023-04-01T12:25:44.001Z,99658.47
2023-04-01T12:30:49.349Z,99651.59
2023-04-01T12:55:58.174Z,99654.78
2023-04-01T13:00:27.601Z,99650.72
2023-04-01T13:05:26.978Z,99661.69
2023-04-01T13:09:37.679Z,99661.69
2023-04-01T13:13:54.425Z,99666.34
2023-04-01T13:18:04.164Z,99664.84
2023-04-01T13:22:19.537Z,99662.94
2023-04-01T13:26:39.544Z,99654.25
2023-04-01T13:30:56.047Z,99653.59
2023-04-01T13:35:17.909Z,99659.28
2023-04-01T13:40:07.576Z,99654.88
2023-04-01T13:44:36.429Z,99658.81
2023-04-01T13:49:21.102Z,99654.38
2023-04-01T13:53:41.424Z,99642.97
2023-04-01T13:58:54.949Z,99643.81
2023-04-01T14:03:42.166Z,99636.84
2023-04-01T14:08:13.295Z,99646.16
2023-04-01T14:12:37.903Z,99650.00
2023-04-01T14:17:10.566Z,99660.78
2023-04-01T14:21:25.876Z,99658.97
2023-04-01T14:26:14.495Z,99646.91
2023-04-01T14:30:36.814Z,99644.78
2023-04-01T14:35:06.420Z,99638.13
2023-04-01T14:39:17.991Z,99633.53
2023-04-01T14:43:24.696Z,99619.41
2023-04-01T14:47:44.539Z,99612.50
2023-04-01T14:51:48.913Z,99583.31
2023-04-01T14:55:53.493Z,99602.91
2023-04-01T14:59:57.628Z,99607.44
2023-04-01T15:04:03.438Z,99598.97
2023-04-01T15:08:14.635Z,99597.91
2023-04-01T15:12:24.080Z,99606.16
2023-04-01T15:16:32.029Z,99597.53
2023-04-01T15:20:50.927Z,99601.75
2023-04-01T15:25:00.433Z,99603.78
2023-04-01T15:29:10.402Z,99606.19
2023-04-01T15:38:37.525Z,99615.16
2023-04-01T15:42:52.144Z,99615.41
2023-04-01T15:46:53.835Z,99627.13
2023-04-01T15:50:58.443Z,99627.78
2023-04-01T15:55:13.835Z,99613.84
2023-04-01T16:03:44.735Z,99613.22
2023-04-01T16:08:00.907Z,99622.59
2023-04-01T16:12:05.690Z,99638.28
2023-04-01T16:16:15.765Z,99638.50
2023-04-01T16:20:23.443Z,99643.56
2023-04-01T16:24:34.407Z,99649.13
2023-04-01T16:28:41.501Z,99652.56
2023-04-01T16:32:53.742Z,99676.78
2023-04-01T16:37:01.872Z,99690.31
2023-04-01T16:45:44.359Z,99692.91
2023-04-01T16:50:11.766Z,99687.66
2023-04-01T16:54:57.481Z,99662.34
2023-04-01T16:59:49.387Z,99653.34
2023-04-01T17:04:07.366Z,99683.81
2023-04-01T17:08:28.624Z,99658.59
2023-04-01T17:12:46.107Z,99665.78
2023-04-01T17:17:28.077Z,99670.06
2023-04-01T17:26:23.577Z,99661.50
2023-04-01T17:30:46.432Z,99654.78
2023-04-01T17:35:03.665Z,99663.66
2023-04-01T17:39:43.420Z,99658.94
2023-04-01T17:49:25.072Z,99667.63
2023-04-01T17:53:39.623Z,99671.19
2023-04-01T17:58:00.237Z,99666.09
2023-04-01T18:02:07.945Z,99657.13
2023-04-01T18:06:21.696Z,99657.59
2023-04-01T18:10:36.246Z,99670.81
2023-04-01T18:15:12.744Z,99677.53
2023-04-01T18:19:28.650Z,99675.28
2023-04-01T18:24:02.189Z,99671.59
2023-04-01T18:28:31.570Z,99666.56
2023-04-01T18:32:49.434Z,99667.97
2023-04-01T18:37:04.212Z,99686.66
2023-04-01T18:41:37.395Z,99686.78
2023-04-01T18:45:40.607Z,99694.63
2023-04-01T18:49:46.059Z,99711.06
2023-04-01T18:53:51.503Z,99713.16
2023-04-01T18:57:58.768Z,99716.72
2023-04-01T19:02:08.518Z,99715.88
2023-04-01T19:06:28.605Z,99723.38
2023-04-01T19:10:44.762Z,99743.31
2023-04-01T19:15:00.965Z,99758.22
2023-04-01T19:19:17.132Z,99765.75
2023-04-01T19:23:38.407Z,99762.25
2023-04-01T19:27:42.068Z,99758.28
2023-04-01T19:31:51.067Z,99763.56
2023-04-01T19:35:58.664Z,99762.78
2023-04-01T19:40:12.710Z,99761.84
2023-04-01T19:44:19.119Z,99761.66
2023-04-01T19:48:43.071Z,99763.41
2023-04-01T19:52:53.125Z,99761.66
2023-04-01T19:56:59.569Z,99753.16
2023-04-01T20:01:16.439Z,99763.59
2023-04-01T20:05:31.611Z,99771.19
2023-04-01T20:09:54.578Z,99768.56
2023-04-01T20:14:04.374Z,99774.59
2023-04-01T20:18:20.556Z,99782.59
2023-04-01T20:22:32.661Z,99781.72
2023-04-01T20:26:39.854Z,99779.94
2023-04-01T20:31:07.295Z,99778.09
2023-04-01T20:35:30.280Z,99786.91
2023-04-01T20:39:58.577Z,99779.19
2023-04-01T20:44:13.359Z,99783.69
2023-04-01T20:48:28.505Z,99796.22
2023-04-01T20:52:37.113Z,99800.72
2023-04-01T20:56:47.487Z,99800.59
2023-04-01T21:00:56.589Z,99808.72
2023-04-01T21:05:26.912Z,99809.63
2023-04-01T21:09:54.417Z,99814.84
2023-04-01T21:14:05.676Z,99814.03
2023-04-01T21:18:17.378Z,99821.06
2023-04-01T21:22:30.108Z,99824.47
2023-04-01T21:26:46.924Z,99828.94
2023-04-01T21:31:02.366Z,99832.31
2023-04-01T21:35:09.530Z,99829.81
2023-04-01T21:39:19.067Z,99831.56
2023-04-01T21:47:56.421Z,99833.41
2023-04-01T21:52:17.365Z,99830.88
2023-04-01T21:56:41.392Z,99837.06
2023-04-01T22:00:54.837Z,99832.66
2023-04-01T22:05:06.506Z,99839.72
2023-04-01T22:09:15.052Z,99838.88
2023-04-01T22:13:19.754Z,99838.16
2023-04-01T22:17:25.592Z,99840.78
2023-04-01T22:21:30.407Z,99844.28
2023-04-01T22:25:36.977Z,99841.66
2023-04-01T22:29:43.180Z,99853.84
2023-04-01T22:33:50.236Z,99825.16
2023-04-01T22:37:55.521Z,99847.75
2023-04-01T22:42:02.893Z,99849.47
2023-04-01T22:46:20.376Z,99838.97
2023-04-01T22:50:29.052Z,99838.19
2023-04-01T22:54:34.820Z,99833.03
2023-04-01T22:58:38.947Z,99846.91
2023-04-01T23:02:46.976Z,99841.63
2023-04-01T23:06:53.336Z,99841.66
2023-04-01T23:11:06.748Z,99843.34
2023-04-01T23:15:27.068Z,99846.91
2023-04-01T23:19:40.321Z,99844.34
2023-04-01T23:23:52.209Z,99836.59
2023-04-01T23:27:59.031Z,99840.06
2023-04-01T23:32:11.535Z,99842.66
2023-04-01T23:36:20.461Z,99841.81
2023-04-01T23:40:46.915Z,99850.50
2023-04-01T23:49:27.197Z,99843.63
2023-04-01T23:53:28.668Z,99838.44
2023-04-01T23:57:36.005Z,99838.41
